Time;durP1;ratioP1;P1;durP2;ratioP2;P2;SDS_P1;SDS_P2;PMS_P1;PMS_P2;Temp;Humidity;BMP_temperature;BMP_pressure;BME280_temperature;BME280_humidity;BME280_pressure;Samples;Min_cycle;Max_cycle;Signal;HPM_P1;HPM_P2
2023/10/06 00:00:40;;;;;;;6.43;3.80;;;;;;;;;;5018146;28;20221;-80
2023/10/06 00:03:10;;;;;;;6.20;4.07;;;;;;;;;;5023533;28;20277;-80
2023/10/06 00:05:37;;;;;;;5.57;3.83;;;;;;;;;;5022469;28;20211;-80
2023/10/06 00:08:04;;;;;;;4.17;3.60;;;;;;;;;;5009420;28;20202;-79
2023/10/06 00:10:32;;;;;;;6.83;3.97;;;;;;;;;;5015845;28;20650;-80
2023/10/06 00:12:59;;;;;;;6.07;3.97;;;;;;;;;;5006687;28;20719;-79
2023/10/06 00:15:35;;;;;;;5.37;3.80;;;;;;;;;;5020876;28;20184;-79
2023/10/06 00:18:07;;;;;;;6.93;4.27;;;;;;;;;;5006394;28;20220;-80
2023/10/06 00:20:56;;;;;;;6.50;4.40;;;;;;;;;;5017541;28;20207;-79
2023/10/06 00:23:21;;;;;;;5.97;4.60;;;;;;;;;;5020395;28;20199;-79
2023/10/06 00:25:51;;;;;;;5.73;4.20;;;;;;;;;;5016416;28;20714;-79
2023/10/06 00:28:22;;;;;;;4.97;4.10;;;;;;;;;;5004086;28;20189;-79
2023/10/06 00:30:55;;;;;;;3.83;3.40;;;;;;;;;;4981413;28;20555;-80
2023/10/06 00:33:22;;;;;;;5.80;3.73;;;;;;;;;;4997959;28;20190;-79
2023/10/06 00:35:48;;;;;;;7.77;4.20;;;;;;;;;;5002135;28;20562;-79
2023/10/06 00:38:18;;;;;;;6.67;4.53;;;;;;;;;;5021871;28;20635;-80
2023/10/06 00:40:51;;;;;;;8.63;4.30;;;;;;;;;;4998187;28;20202;-79
2023/10/06 00:43:39;;;;;;;6.93;4.43;;;;;;;;;;5001776;28;20206;-79
2023/10/06 00:46:09;;;;;;;5.83;4.47;;;;;;;;;;4989996;28;20205;-79
2023/10/06 00:48:38;;;;;;;7.47;4.90;;;;;;;;;;4963992;28;20543;-79
2023/10/06 00:51:05;;;;;;;5.83;4.23;;;;;;;;;;5004138;28;20264;-79
2023/10/06 00:53:34;;;;;;;6.90;4.60;;;;;;;;;;5020090;28;20647;-79
2023/10/06 00:56:10;;;;;;;7.20;4.73;;;;;;;;;;5020695;28;20182;-79
2023/10/06 00:58:41;;;;;;;6.27;4.60;;;;;;;;;;5021871;28;20207;-79
2023/10/06 01:01:19;;;;;;;8.50;4.50;;;;;;;;;;4999313;28;20321;-79
2023/10/06 01:04:00;;;;;;;6.07;4.90;;;;;;;;;;5014946;28;20191;-79
2023/10/06 01:06:33;;;;;;;6.70;4.60;;;;;;;;;;5016163;28;20598;-79
2023/10/06 01:11:51;;;;;;;8.97;5.03;;;;;;;;;;5000645;28;20205;-80
2023/10/06 01:14:27;;;;;;;6.67;4.47;;;;;;;;;;5015580;28;20617;-79
2023/10/06 01:19:35;;;;;;;6.70;4.97;;;;;;;;;;5014756;28;20191;-79
2023/10/06 01:22:24;;;;;;;7.80;5.00;;;;;;;;;;5022311;28;20187;-79
2023/10/06 01:24:51;;;;;;;6.93;4.90;;;;;;;;;;5001182;28;20226;-79
2023/10/06 01:27:19;;;;;;;6.23;4.60;;;;;;;;;;5019178;28;20204;-79
2023/10/06 01:29:45;;;;;;;7.73;4.80;;;;;;;;;;5021092;28;20195;-79
2023/10/06 01:32:15;;;;;;;6.83;4.70;;;;;;;;;;4996575;28;20257;-79
2023/10/06 01:34:41;;;;;;;7.53;5.30;;;;;;;;;;5000923;28;20190;-79
2023/10/06 01:37:12;;;;;;;6.13;4.70;;;;;;;;;;4976871;28;20261;-79
2023/10/06 01:39:38;;;;;;;5.93;4.80;;;;;;;;;;5019290;28;20179;-79
2023/10/06 01:42:07;;;;;;;7.50;5.63;;;;;;;;;;5018811;28;20178;-79
2023/10/06 01:44:34;;;;;;;5.80;4.63;;;;;;;;;;5018796;28;20203;-79
2023/10/06 01:47:04;;;;;;;6.40;4.80;;;;;;;;;;4982191;28;20663;-79
2023/10/06 01:49:33;;;;;;;6.07;4.17;;;;;;;;;;5015832;28;20187;-80
2023/10/06 01:52:02;;;;;;;4.83;3.70;;;;;;;;;;5004130;28;20555;-80
2023/10/06 01:54:34;;;;;;;4.83;4.10;;;;;;;;;;5015030;28;20245;-79
2023/10/06 01:57:06;;;;;;;5.37;4.30;;;;;;;;;;4997531;28;20264;-79
2023/10/06 01:59:33;;;;;;;5.67;4.50;;;;;;;;;;5005623;28;20182;-79
2023/10/06 02:02:01;;;;;;;6.80;4.33;;;;;;;;;;5004332;28;20191;-79
2023/10/06 02:04:38;;;;;;;6.10;4.60;;;;;;;;;;5015464;28;20205;-79
2023/10/06 02:07:09;;;;;;;6.67;4.27;;;;;;;;;;5019400;28;20186;-79
2023/10/06 02:09:36;;;;;;;7.07;4.43;;;;;;;;;;5019059;28;20274;-79
2023/10/06 02:12:05;;;;;;;7.10;4.17;;;;;;;;;;5018366;28;20693;-79
2023/10/06 02:14:32;;;;;;;5.87;4.23;;;;;;;;;;4998056;28;20187;-79
2023/10/06 02:17:05;;;;;;;6.07;4.20;;;;;;;;;;4971883;28;20637;-79
2023/10/06 02:19:32;;;;;;;5.90;4.23;;;;;;;;;;5015879;28;20604;-79
2023/10/06 02:21:59;;;;;;;4.40;3.93;;;;;;;;;;4998273;28;20782;-79
2023/10/06 02:24:26;;;;;;;6.57;4.77;;;;;;;;;;5018295;28;20187;-79
2023/10/06 02:27:00;;;;;;;7.03;4.60;;;;;;;;;;5003435;28;20811;-79
2023/10/06 02:29:26;;;;;;;7.23;5.13;;;;;;;;;;5013678;28;20221;-80
2023/10/06 02:32:06;;;;;;;5.87;4.43;;;;;;;;;;4997761;28;20197;-79
2023/10/06 02:34:35;;;;;;;5.57;4.40;;;;;;;;;;5002723;28;20273;-79
2023/10/06 02:37:06;;;;;;;5.10;4.00;;;;;;;;;;5021894;28;20210;-79
2023/10/06 02:39:38;;;;;;;4.40;3.70;;;;;;;;;;5023051;28;20206;-79
2023/10/06 02:42:13;;;;;;;4.67;3.80;;;;;;;;;;5001250;28;20677;-79
2023/10/06 02:44:41;;;;;;;4.80;4.03;;;;;;;;;;5022456;28;20197;-79
2023/10/06 02:47:09;;;;;;;4.10;3.70;;;;;;;;;;5001189;28;20211;-79
2023/10/06 02:49:37;;;;;;;4.73;4.07;;;;;;;;;;5015596;28;20270;-79
2023/10/06 02:52:20;;;;;;;4.57;4.17;;;;;;;;;;5001782;28;20534;-79
2023/10/06 02:54:55;;;;;;;5.27;4.30;;;;;;;;;;5003073;28;20183;-80
2023/10/06 02:57:22;;;;;;;4.90;4.20;;;;;;;;;;4999649;28;21540;-79
2023/10/06 02:59:48;;;;;;;4.90;4.37;;;;;;;;;;5001634;28;20214;-79
2023/10/06 03:02:18;;;;;;;5.37;4.73;;;;;;;;;;5002140;28;20554;-79
2023/10/06 03:04:46;;;;;;;5.70;4.37;;;;;;;;;;5019611;28;20655;-79
2023/10/06 03:07:14;;;;;;;6.13;4.47;;;;;;;;;;5003931;28;20261;-79
2023/10/06 03:09:46;;;;;;;5.00;4.30;;;;;;;;;;4998966;28;20187;-79
2023/10/06 03:14:49;;;;;;;5.63;4.10;;;;;;;;;;4999361;28;20277;-80
2023/10/06 03:17:18;;;;;;;5.97;4.20;;;;;;;;;;4996563;28;20211;-79
2023/10/06 03:19:49;;;;;;;4.63;4.00;;;;;;;;;;5018239;28;20174;-79
2023/10/06 03:22:22;;;;;;;4.80;4.30;;;;;;;;;;4987209;28;20221;-80
2023/10/06 03:25:00;;;;;;;6.07;4.33;;;;;;;;;;4995952;28;20281;-80
2023/10/06 03:27:29;;;;;;;3.67;3.27;;;;;;;;;;5009695;28;20614;-79
2023/10/06 03:29:56;;;;;;;4.97;3.40;;;;;;;;;;4995431;28;20573;-79
2023/10/06 03:32:32;;;;;;;4.37;3.97;;;;;;;;;;5013125;28;20179;-79
2023/10/06 03:35:21;;;;;;;4.37;3.73;;;;;;;;;;4994741;28;20218;-79
2023/10/06 03:38:08;;;;;;;5.17;3.40;;;;;;;;;;5010391;28;20238;-79
2023/10/06 03:46:04;;;;;;;5.07;4.20;;;;;;;;;;4996260;28;20209;-79
2023/10/06 03:48:31;;;;;;;7.53;4.43;;;;;;;;;;4997937;28;20246;-79
2023/10/06 03:50:58;;;;;;;7.93;5.00;;;;;;;;;;4995596;28;20218;-79
2023/10/06 03:53:24;;;;;;;6.67;5.03;;;;;;;;;;4979414;28;20223;-79
2023/10/06 03:55:50;;;;;;;5.57;4.20;;;;;;;;;;5013464;28;20187;-79
2023/10/06 03:58:18;;;;;;;6.27;4.50;;;;;;;;;;5018377;28;20219;-79
2023/10/06 04:00:47;;;;;;;7.00;4.40;;;;;;;;;;5018522;28;20203;-79
2023/10/06 04:03:15;;;;;;;5.90;4.10;;;;;;;;;;5012617;28;20266;-79
2023/10/06 04:05:44;;;;;;;5.70;3.93;;;;;;;;;;5013592;28;20187;-79
2023/10/06 04:08:18;;;;;;;3.43;3.00;;;;;;;;;;5003168;28;20179;-79
2023/10/06 04:10:48;;;;;;;3.93;3.17;;;;;;;;;;5004079;28;20220;-80
2023/10/06 04:13:17;;;;;;;5.23;3.40;;;;;;;;;;4999891;28;20205;-80
2023/10/06 04:15:46;;;;;;;3.50;3.20;;;;;;;;;;4996106;28;20190;-80
2023/10/06 04:18:12;;;;;;;5.20;3.63;;;;;;;;;;5015461;28;20217;-79
2023/10/06 04:20:42;;;;;;;4.60;4.10;;;;;;;;;;4995307;28;20229;-80
2023/10/06 04:23:11;;;;;;;7.07;4.40;;;;;;;;;;5008885;28;20192;-79
2023/10/06 04:25:38;;;;;;;4.70;4.20;;;;;;;;;;4995865;28;20649;-79
2023/10/06 04:28:14;;;;;;;6.57;4.47;;;;;;;;;;5000942;28;20734;-79
2023/10/06 04:30:44;;;;;;;5.43;3.87;;;;;;;;;;5023890;28;20702;-80
2023/10/06 04:33:11;;;;;;;7.07;4.67;;;;;;;;;;5012699;28;20202;-79
2023/10/06 04:35:42;;;;;;;6.87;4.80;;;;;;;;;;5013515;28;20207;-79
2023/10/06 04:38:10;;;;;;;6.13;4.13;;;;;;;;;;5017382;28;20695;-79
2023/10/06 04:40:43;;;;;;;5.27;4.10;;;;;;;;;;5013183;28;20207;-81
2023/10/06 04:43:13;;;;;;;5.77;4.27;;;;;;;;;;5011013;28;20270;-79
2023/10/06 04:45:40;;;;;;;6.33;4.50;;;;;;;;;;5017740;28;20274;-79
2023/10/06 04:48:07;;;;;;;6.37;4.53;;;;;;;;;;5013103;28;20191;-80
2023/10/06 04:50:34;;;;;;;5.53;4.30;;;;;;;;;;4998326;28;20214;-79
2023/10/06 04:53:01;;;;;;;4.87;4.30;;;;;;;;;;5015065;28;20283;-79
2023/10/06 04:55:27;;;;;;;5.40;4.57;;;;;;;;;;5013114;28;20204;-79
2023/10/06 04:57:53;;;;;;;6.43;5.30;;;;;;;;;;5021416;28;20221;-79
2023/10/06 05:00:19;;;;;;;6.00;4.60;;;;;;;;;;5019148;28;20581;-79
2023/10/06 05:02:50;;;;;;;5.60;4.20;;;;;;;;;;4996366;28;20193;-79
2023/10/06 05:05:20;;;;;;;6.43;3.90;;;;;;;;;;5005237;28;20179;-80
2023/10/06 05:07:48;;;;;;;4.63;3.97;;;;;;;;;;5020850;28;20691;-79
2023/10/06 05:10:16;;;;;;;5.60;4.10;;;;;;;;;;5002882;28;20214;-79
2023/10/06 05:12:43;;;;;;;4.47;3.87;;;;;;;;;;5016586;28;20525;-79
2023/10/06 05:15:14;;;;;;;6.20;3.93;;;;;;;;;;5018589;28;20179;-79
2023/10/06 05:17:40;;;;;;;4.30;3.70;;;;;;;;;;5011293;28;20795;-79
2023/10/06 05:20:19;;;;;;;6.30;4.27;;;;;;;;;;5008686;28;20207;-79
2023/10/06 05:22:47;;;;;;;6.80;4.10;;;;;;;;;;5013189;28;20225;-80
2023/10/06 05:25:13;;;;;;;4.33;3.40;;;;;;;;;;5009705;28;20466;-79
2023/10/06 05:27:42;;;;;;;5.23;3.97;;;;;;;;;;5010515;28;20270;-79
2023/10/06 05:30:13;;;;;;;4.00;3.20;;;;;;;;;;5014678;28;20687;-79
2023/10/06 05:32:42;;;;;;;3.40;3.00;;;;;;;;;;5010659;28;20186;-80
2023/10/06 05:35:10;;;;;;;5.13;3.10;;;;;;;;;;4991570;28;20183;-79
2023/10/06 05:37:36;;;;;;;4.80;3.13;;;;;;;;;;5005433;28;20209;-79
2023/10/06 05:40:03;;;;;;;4.90;3.20;;;;;;;;;;4988945;28;20203;-79
2023/10/06 05:42:30;;;;;;;6.83;4.70;;;;;;;;;;4994151;28;20191;-84
2023/10/06 05:44:56;;;;;;;4.53;3.23;;;;;;;;;;4995491;28;20212;-83
2023/10/06 05:47:23;;;;;;;5.10;3.70;;;;;;;;;;4994495;28;20270;-85
2023/10/06 05:49:49;;;;;;;4.93;3.83;;;;;;;;;;5012362;28;20211;-82
2023/10/06 05:52:16;;;;;;;4.67;4.00;;;;;;;;;;4989348;28;20682;-83
2023/10/06 05:54:43;;;;;;;7.13;4.23;;;;;;;;;;4992959;28;20187;-87
2023/10/06 05:57:09;;;;;;;5.30;4.30;;;;;;;;;;4978090;28;20211;-86
2023/10/06 05:59:38;;;;;;;5.90;4.00;;;;;;;;;;4998140;28;20225;-78
2023/10/06 06:02:05;;;;;;;7.77;3.97;;;;;;;;;;5014017;28;20179;-79
2023/10/06 06:04:34;;;;;;;8.30;3.87;;;;;;;;;;5013650;28;20187;-80
2023/10/06 06:07:08;;;;;;;6.00;4.10;;;;;;;;;;4959719;28;20706;-79
2023/10/06 06:09:34;;;;;;;6.43;4.10;;;;;;;;;;4990200;28;20591;-79
2023/10/06 06:12:00;;;;;;;5.03;3.80;;;;;;;;;;4993486;28;20189;-79
2023/10/06 06:14:26;;;;;;;10.17;4.10;;;;;;;;;;5013353;28;20187;-79
2023/10/06 06:16:53;;;;;;;6.27;4.13;;;;;;;;;;4994553;28;20305;-79
2023/10/06 06:19:20;;;;;;;4.67;3.83;;;;;;;;;;4974361;28;20261;-80
2023/10/06 06:21:46;;;;;;;9.87;4.23;;;;;;;;;;5003725;28;20294;-80
2023/10/06 06:24:20;;;;;;;7.63;4.23;;;;;;;;;;4974902;28;20209;-79
2023/10/06 06:26:46;;;;;;;6.97;4.60;;;;;;;;;;4999439;28;20423;-79
2023/10/06 06:29:12;;;;;;;5.50;3.90;;;;;;;;;;4980488;28;20310;-80
2023/10/06 06:31:38;;;;;;;8.37;4.60;;;;;;;;;;5002962;28;20198;-80
2023/10/06 06:34:04;;;;;;;7.33;4.60;;;;;;;;;;4983251;28;20214;-80
2023/10/06 06:36:31;;;;;;;7.13;4.87;;;;;;;;;;5012458;28;20269;-80
2023/10/06 06:39:01;;;;;;;6.10;4.00;;;;;;;;;;5017272;28;20178;-80
2023/10/06 06:41:28;;;;;;;5.27;4.33;;;;;;;;;;5001944;28;20205;-80
2023/10/06 06:44:01;;;;;;;5.83;4.50;;;;;;;;;;4990933;28;20342;-80
2023/10/06 06:46:29;;;;;;;7.40;5.17;;;;;;;;;;4990401;28;20191;-80
2023/10/06 06:48:56;;;;;;;7.20;5.10;;;;;;;;;;5021648;28;20175;-80
2023/10/06 06:51:27;;;;;;;10.77;5.53;;;;;;;;;;5004148;28;20252;-79
2023/10/06 06:53:57;;;;;;;9.57;5.77;;;;;;;;;;5017502;28;20214;-79
2023/10/06 06:56:28;;;;;;;8.57;5.23;;;;;;;;;;5021699;28;20184;-80
2023/10/06 06:58:56;;;;;;;7.27;4.77;;;;;;;;;;4986439;28;20217;-79
2023/10/06 07:01:23;;;;;;;9.97;5.07;;;;;;;;;;4989196;28;20305;-79
2023/10/06 07:03:49;;;;;;;8.30;5.77;;;;;;;;;;5023632;28;20213;-80
2023/10/06 07:06:16;;;;;;;11.30;5.43;;;;;;;;;;5027488;28;20234;-79
2023/10/06 07:08:47;;;;;;;7.23;5.63;;;;;;;;;;5004114;28;20215;-80
2023/10/06 07:11:13;;;;;;;11.20;5.83;;;;;;;;;;4998169;28;20766;-80
2023/10/06 07:13:39;;;;;;;9.10;5.27;;;;;;;;;;5001068;28;20654;-80
2023/10/06 07:16:09;;;;;;;5.63;5.00;;;;;;;;;;5007183;28;20226;-80
2023/10/06 07:18:36;;;;;;;7.73;5.40;;;;;;;;;;4987091;28;20214;-80
2023/10/06 07:21:13;;;;;;;9.47;5.60;;;;;;;;;;4999625;28;20213;-80
2023/10/06 07:23:39;;;;;;;10.13;4.93;;;;;;;;;;4998951;28;20186;-80
2023/10/06 07:26:12;;;;;;;8.00;5.27;;;;;;;;;;4998780;28;20599;-79
2023/10/06 07:28:39;;;;;;;7.43;5.10;;;;;;;;;;5023060;28;20179;-79
2023/10/06 07:31:13;;;;;;;11.57;5.67;;;;;;;;;;4998159;28;20267;-80
2023/10/06 07:33:39;;;;;;;12.03;5.70;;;;;;;;;;5014573;28;20182;-79
2023/10/06 07:36:12;;;;;;;7.07;5.30;;;;;;;;;;4970152;28;20182;-80
2023/10/06 07:38:38;;;;;;;9.07;5.47;;;;;;;;;;4981681;28;20234;-78
2023/10/06 07:41:05;;;;;;;9.43;5.70;;;;;;;;;;5019767;28;20270;-79
2023/10/06 07:43:31;;;;;;;7.57;5.30;;;;;;;;;;5022619;28;20713;-79
2023/10/06 07:46:07;;;;;;;7.37;5.20;;;;;;;;;;5022245;28;20701;-79
2023/10/06 07:48:36;;;;;;;8.20;4.83;;;;;;;;;;5005215;28;20178;-79
2023/10/06 07:51:09;;;;;;;8.40;4.80;;;;;;;;;;5006925;28;20214;-80
2023/10/06 07:53:36;;;;;;;8.73;5.23;;;;;;;;;;5015283;28;20214;-79
2023/10/06 07:56:06;;;;;;;9.57;5.47;;;;;;;;;;4992130;28;20193;-79
2023/10/06 07:58:33;;;;;;;7.90;5.70;;;;;;;;;;5009661;28;20265;-80
2023/10/06 08:01:02;;;;;;;8.23;5.07;;;;;;;;;;5026090;28;20206;-80
2023/10/06 08:03:29;;;;;;;8.17;5.80;;;;;;;;;;5010339;28;20190;-79
2023/10/06 08:05:55;;;;;;;6.50;5.10;;;;;;;;;;5019677;28;20195;-80
2023/10/06 08:08:22;;;;;;;8.03;5.67;;;;;;;;;;4996394;28;20295;-80
2023/10/06 08:10:49;;;;;;;7.93;5.03;;;;;;;;;;4993036;28;20202;-80
2023/10/06 08:13:15;;;;;;;8.57;5.47;;;;;;;;;;5024869;28;20654;-80
2023/10/06 08:15:44;;;;;;;7.87;5.80;;;;;;;;;;5023023;28;20185;-79
2023/10/06 08:18:12;;;;;;;6.73;6.03;;;;;;;;;;5004509;28;20285;-80
2023/10/06 08:20:40;;;;;;;7.60;5.53;;;;;;;;;;5002330;28;20194;-80
2023/10/06 08:23:11;;;;;;;6.57;5.47;;;;;;;;;;5014288;28;20583;-80
2023/10/06 08:25:38;;;;;;;9.33;6.10;;;;;;;;;;5020531;28;20636;-80
2023/10/06 08:28:07;;;;;;;10.47;6.47;;;;;;;;;;5019942;28;20638;-80
2023/10/06 08:30:33;;;;;;;8.73;7.13;;;;;;;;;;4993961;28;20199;-80
2023/10/06 08:32:59;;;;;;;12.20;7.33;;;;;;;;;;4991779;28;20600;-80
2023/10/06 08:35:29;;;;;;;10.17;7.57;;;;;;;;;;5003424;28;20183;-79
2023/10/06 08:37:56;;;;;;;9.53;7.40;;;;;;;;;;5016566;28;20219;-80
2023/10/06 08:40:23;;;;;;;9.67;6.53;;;;;;;;;;5005135;28;20191;-80
2023/10/06 08:42:53;;;;;;;11.23;7.00;;;;;;;;;;5027718;28;20174;-79
2023/10/06 08:45:26;;;;;;;9.50;6.40;;;;;;;;;;5030120;28;20187;-79
2023/10/06 08:47:54;;;;;;;10.40;6.80;;;;;;;;;;5020203;28;20199;-80
2023/10/06 08:50:23;;;;;;;8.60;6.30;;;;;;;;;;5016407;28;20261;-80
2023/10/06 08:52:53;;;;;;;10.80;6.83;;;;;;;;;;5015914;28;20180;-79
2023/10/06 08:55:20;;;;;;;9.37;6.93;;;;;;;;;;5002887;28;20546;-80
2023/10/06 08:57:47;;;;;;;10.77;6.57;;;;;;;;;;4997993;28;20198;-80
2023/10/06 09:00:14;;;;;;;10.70;6.63;;;;;;;;;;5000425;28;20209;-78
2023/10/06 09:02:41;;;;;;;14.23;7.23;;;;;;;;;;5020233;28;20183;-78
2023/10/06 09:05:13;;;;;;;10.53;7.23;;;;;;;;;;5020398;28;20651;-78
2023/10/06 09:07:57;;;;;;;10.27;6.77;;;;;;;;;;5020037;28;20198;-78
2023/10/06 09:10:23;;;;;;;12.70;7.60;;;;;;;;;;5020484;28;20213;-78
2023/10/06 09:13:10;;;;;;;14.70;8.40;;;;;;;;;;5018286;28;20583;-78
2023/10/06 09:15:37;;;;;;;12.90;7.77;;;;;;;;;;4998534;28;20210;-78
2023/10/06 09:18:18;;;;;;;10.90;7.57;;;;;;;;;;4999215;28;21173;-77
2023/10/06 09:20:45;;;;;;;10.97;7.53;;;;;;;;;;4996428;28;20262;-78
2023/10/06 09:23:13;;;;;;;12.43;7.53;;;;;;;;;;5011072;28;20206;-78
2023/10/06 09:25:45;;;;;;;11.03;7.53;;;;;;;;;;4994665;28;20191;-78
2023/10/06 09:28:16;;;;;;;15.97;7.90;;;;;;;;;;4997350;28;20200;-78
2023/10/06 09:30:50;;;;;;;14.80;8.20;;;;;;;;;;4997568;28;20291;-79
2023/10/06 09:33:17;;;;;;;11.47;7.90;;;;;;;;;;5016539;28;20186;-80
2023/10/06 09:35:43;;;;;;;10.73;7.83;;;;;;;;;;5017663;28;20240;-79
2023/10/06 09:38:14;;;;;;;10.73;8.00;;;;;;;;;;5009417;28;20240;-79
2023/10/06 09:40:42;;;;;;;11.80;8.10;;;;;;;;;;5011672;28;20198;-79
2023/10/06 09:43:09;;;;;;;12.73;7.50;;;;;;;;;;5015834;28;20202;-79
2023/10/06 09:45:36;;;;;;;13.03;7.30;;;;;;;;;;5000344;28;20202;-79
2023/10/06 09:48:05;;;;;;;12.17;7.83;;;;;;;;;;5001474;28;20191;-78
2023/10/06 09:50:32;;;;;;;14.00;8.10;;;;;;;;;;5015377;28;20202;-79
2023/10/06 09:53:05;;;;;;;15.37;7.97;;;;;;;;;;4999239;28;20207;-79
2023/10/06 09:55:32;;;;;;;12.83;8.00;;;;;;;;;;5019752;28;20190;-79
2023/10/06 09:57:58;;;;;;;12.97;8.63;;;;;;;;;;5014229;28;20525;-79
2023/10/06 10:00:29;;;;;;;13.33;9.43;;;;;;;;;;4998857;28;20203;-79
2023/10/06 10:02:57;;;;;;;13.47;9.80;;;;;;;;;;5014481;28;20179;-79
2023/10/06 10:05:24;;;;;;;12.67;9.40;;;;;;;;;;5004462;28;20187;-80
2023/10/06 10:07:50;;;;;;;19.13;9.70;;;;;;;;;;4998173;28;20513;-79
2023/10/06 10:10:22;;;;;;;14.83;9.67;;;;;;;;;;4997535;28;20267;-79
2023/10/06 10:13:07;;;;;;;14.80;9.23;;;;;;;;;;4992606;28;20261;-79
2023/10/06 10:15:37;;;;;;;17.13;10.27;;;;;;;;;;4991740;28;20267;-79
2023/10/06 10:18:11;;;;;;;16.97;10.90;;;;;;;;;;5011713;28;20598;-79
2023/10/06 10:20:37;;;;;;;14.67;10.93;;;;;;;;;;5015402;28;20208;-79
2023/10/06 10:23:03;;;;;;;15.40;9.73;;;;;;;;;;5015395;28;20802;-81
2023/10/06 10:25:30;;;;;;;16.03;10.43;;;;;;;;;;5016108;28;20183;-79
2023/10/06 10:28:17;;;;;;;17.57;11.03;;;;;;;;;;5017432;28;20236;-79
2023/10/06 10:30:54;;;;;;;15.80;11.60;;;;;;;;;;5019044;28;20675;-79
2023/10/06 10:33:21;;;;;;;15.60;10.20;;;;;;;;;;5001296;28;20186;-78
2023/10/06 10:36:05;;;;;;;13.60;9.23;;;;;;;;;;5025077;28;20196;-78
2023/10/06 10:38:37;;;;;;;16.53;9.93;;;;;;;;;;5023957;28;20221;-79
2023/10/06 10:41:08;;;;;;;14.73;10.10;;;;;;;;;;5001168;28;20206;-77
2023/10/06 10:43:41;;;;;;;19.50;11.13;;;;;;;;;;5015896;28;20199;-78
2023/10/06 10:46:08;;;;;;;18.90;11.03;;;;;;;;;;5016327;28;20191;-78
2023/10/06 10:48:37;;;;;;;15.30;9.53;;;;;;;;;;5020159;28;20186;-80
2023/10/06 10:51:11;;;;;;;16.97;11.00;;;;;;;;;;5014090;28;20269;-78
2023/10/06 10:53:41;;;;;;;16.23;10.17;;;;;;;;;;5015888;28;20273;-77
2023/10/06 10:56:13;;;;;;;13.00;9.27;;;;;;;;;;4994569;28;20726;-79
2023/10/06 10:58:42;;;;;;;17.30;11.03;;;;;;;;;;5016798;28;20239;-77
2023/10/06 11:01:22;;;;;;;16.27;10.40;;;;;;;;;;5008535;28;20200;-81
2023/10/06 11:04:08;;;;;;;17.13;9.80;;;;;;;;;;5010863;28;20190;-79
2023/10/06 11:06:35;;;;;;;14.23;9.03;;;;;;;;;;5014441;28;20187;-77
2023/10/06 11:09:12;;;;;;;13.77;8.17;;;;;;;;;;5010836;28;20183;-76
2023/10/06 11:11:39;;;;;;;15.20;8.47;;;;;;;;;;5010302;28;20209;-76
2023/10/06 11:14:05;;;;;;;15.20;8.60;;;;;;;;;;4988142;28;20219;-74
2023/10/06 11:16:32;;;;;;;13.00;8.20;;;;;;;;;;5007608;28;20187;-74
2023/10/06 11:18:59;;;;;;;12.40;8.30;;;;;;;;;;5009077;28;20317;-75
2023/10/06 11:21:30;;;;;;;15.13;8.77;;;;;;;;;;4994998;28;20275;-75
2023/10/06 11:23:58;;;;;;;16.47;8.33;;;;;;;;;;5012108;28;20183;-75
2023/10/06 11:26:30;;;;;;;14.17;8.70;;;;;;;;;;5013702;28;20191;-75
2023/10/06 11:29:00;;;;;;;15.47;8.63;;;;;;;;;;5020740;28;20187;-75
2023/10/06 11:31:29;;;;;;;13.83;7.77;;;;;;;;;;5013353;28;20214;-75
2023/10/06 11:33:57;;;;;;;15.13;8.63;;;;;;;;;;5017760;28;20270;-76
2023/10/06 11:36:23;;;;;;;12.33;7.53;;;;;;;;;;5017602;28;20186;-76
2023/10/06 11:38:50;;;;;;;12.13;7.00;;;;;;;;;;5014504;28;20238;-76
2023/10/06 11:41:23;;;;;;;14.77;7.10;;;;;;;;;;5009771;28;20200;-75
2023/10/06 11:43:55;;;;;;;13.37;7.00;;;;;;;;;;5014151;28;20195;-75
2023/10/06 11:46:22;;;;;;;10.93;6.67;;;;;;;;;;5017354;28;20187;-76
2023/10/06 11:48:49;;;;;;;12.10;7.17;;;;;;;;;;4999106;28;20793;-77
2023/10/06 11:51:16;;;;;;;11.50;6.27;;;;;;;;;;5002393;28;20231;-79
2023/10/06 11:53:42;;;;;;;11.43;5.90;;;;;;;;;;5021162;28;20690;-78
2023/10/06 11:56:13;;;;;;;11.33;5.93;;;;;;;;;;5016219;28;20187;-78
2023/10/06 11:58:40;;;;;;;9.47;4.80;;;;;;;;;;5013480;28;20348;-78
2023/10/06 12:01:07;;;;;;;12.80;6.27;;;;;;;;;;5021457;28;20228;-78
2023/10/06 12:03:42;;;;;;;11.13;6.13;;;;;;;;;;5002164;28;20197;-80
2023/10/06 12:06:12;;;;;;;8.90;5.77;;;;;;;;;;5019653;28;20182;-75
2023/10/06 12:08:45;;;;;;;10.63;5.33;;;;;;;;;;5000364;28;20242;-77
2023/10/06 12:11:12;;;;;;;9.80;4.97;;;;;;;;;;5013914;28;20207;-77
2023/10/06 12:13:39;;;;;;;7.80;4.50;;;;;;;;;;5009850;28;20349;-77
2023/10/06 12:16:12;;;;;;;7.47;4.27;;;;;;;;;;5011280;28;20274;-77
2023/10/06 12:18:38;;;;;;;8.97;4.50;;;;;;;;;;4994350;28;20354;-77
2023/10/06 12:21:06;;;;;;;10.33;4.83;;;;;;;;;;5012723;28;20715;-77
2023/10/06 12:23:33;;;;;;;8.93;4.93;;;;;;;;;;5003167;28;20171;-77
2023/10/06 12:25:59;;;;;;;10.40;4.57;;;;;;;;;;5010236;28;20187;-77
2023/10/06 12:28:25;;;;;;;8.33;4.27;;;;;;;;;;5013941;28;20404;-77
2023/10/06 12:30:53;;;;;;;7.23;3.90;;;;;;;;;;5008070;28;20229;-78
2023/10/06 12:33:20;;;;;;;6.67;3.90;;;;;;;;;;5001133;28;20271;-77
2023/10/06 12:35:46;;;;;;;6.87;3.80;;;;;;;;;;4987283;28;21259;-78
2023/10/06 12:38:14;;;;;;;7.67;4.00;;;;;;;;;;5005921;28;20212;-77
2023/10/06 12:40:41;;;;;;;8.67;4.20;;;;;;;;;;5001726;28;20242;-77
2023/10/06 12:43:07;;;;;;;6.57;3.73;;;;;;;;;;5000491;28;20199;-78
2023/10/06 12:45:33;;;;;;;7.10;3.90;;;;;;;;;;5002608;28;20179;-77
2023/10/06 12:48:02;;;;;;;8.90;4.50;;;;;;;;;;4982312;28;20321;-78
2023/10/06 12:50:29;;;;;;;7.17;3.50;;;;;;;;;;4999780;28;20752;-78
2023/10/06 12:52:55;;;;;;;6.17;3.30;;;;;;;;;;4999908;28;20190;-79
2023/10/06 12:55:24;;;;;;;10.60;4.07;;;;;;;;;;4996491;28;20183;-78
2023/10/06 12:57:52;;;;;;;6.07;4.10;;;;;;;;;;4998701;28;20211;-78
2023/10/06 13:00:19;;;;;;;8.23;4.13;;;;;;;;;;5003849;28;20286;-79
2023/10/06 13:02:47;;;;;;;6.73;4.33;;;;;;;;;;4981937;28;20190;-78
2023/10/06 13:05:16;;;;;;;8.63;4.67;;;;;;;;;;5003460;28;20241;-78
2023/10/06 13:07:51;;;;;;;7.53;3.77;;;;;;;;;;5003462;28;20190;-78
2023/10/06 13:10:21;;;;;;;6.00;3.60;;;;;;;;;;5001873;28;20206;-78
2023/10/06 13:12:48;;;;;;;7.33;3.97;;;;;;;;;;5001186;28;20188;-78
2023/10/06 13:15:17;;;;;;;6.80;4.07;;;;;;;;;;4984039;28;20223;-79
2023/10/06 13:17:44;;;;;;;6.93;3.97;;;;;;;;;;4987252;28;20207;-80
2023/10/06 13:20:13;;;;;;;7.87;4.30;;;;;;;;;;5010210;28;20242;-80
2023/10/06 13:22:44;;;;;;;7.97;4.30;;;;;;;;;;4996928;28;20249;-79
2023/10/06 13:25:11;;;;;;;9.03;4.50;;;;;;;;;;5009876;28;20181;-79
2023/10/06 13:27:38;;;;;;;7.00;4.40;;;;;;;;;;4991875;28;20190;-79
2023/10/06 13:30:07;;;;;;;7.33;4.33;;;;;;;;;;5008787;28;20625;-80
2023/10/06 13:32:37;;;;;;;6.77;4.37;;;;;;;;;;4989114;28;20221;-79
2023/10/06 13:35:11;;;;;;;7.10;4.30;;;;;;;;;;4995968;28;20225;-79
2023/10/06 13:37:39;;;;;;;6.40;4.20;;;;;;;;;;5010190;28;20298;-79
2023/10/06 13:40:10;;;;;;;9.40;4.60;;;;;;;;;;5011632;28;20219;-79
2023/10/06 13:42:41;;;;;;;6.10;4.07;;;;;;;;;;5006113;28;20204;-79
2023/10/06 13:45:14;;;;;;;6.47;4.07;;;;;;;;;;5003914;28;20208;-80
2023/10/06 13:47:42;;;;;;;8.27;4.17;;;;;;;;;;4999926;28;20578;-80
2023/10/06 13:50:12;;;;;;;7.23;4.60;;;;;;;;;;5001592;28;20275;-80
2023/10/06 13:52:40;;;;;;;6.43;4.30;;;;;;;;;;4984157;28;20188;-79
2023/10/06 13:55:07;;;;;;;6.20;4.30;;;;;;;;;;5001538;28;20210;-80
2023/10/06 13:57:33;;;;;;;7.53;4.60;;;;;;;;;;4985977;28;20746;-79
2023/10/06 13:59:59;;;;;;;7.93;4.17;;;;;;;;;;5005640;28;20230;-78
2023/10/06 14:02:26;;;;;;;6.50;4.17;;;;;;;;;;4950926;28;20190;-79
2023/10/06 14:04:52;;;;;;;7.77;4.03;;;;;;;;;;5004761;28;20203;-79
2023/10/06 14:07:21;;;;;;;7.13;4.10;;;;;;;;;;4986802;28;20190;-79
2023/10/06 14:09:48;;;;;;;6.60;4.00;;;;;;;;;;5004109;28;20183;-79
2023/10/06 14:12:14;;;;;;;6.53;4.30;;;;;;;;;;5000988;28;20195;-79
2023/10/06 14:17:16;;;;;;;6.70;4.00;;;;;;;;;;4997811;28;20217;-79
2023/10/06 14:19:52;;;;;;;6.80;4.07;;;;;;;;;;5004402;28;20171;-80
2023/10/06 14:22:21;;;;;;;8.20;4.70;;;;;;;;;;4999852;28;20178;-82
2023/10/06 14:24:52;;;;;;;6.83;4.53;;;;;;;;;;5005672;28;20184;-82
2023/10/06 14:27:19;;;;;;;6.37;4.23;;;;;;;;;;5004423;28;20187;-83
2023/10/06 14:29:45;;;;;;;7.23;4.17;;;;;;;;;;5007165;28;20274;-81
2023/10/06 14:32:18;;;;;;;6.30;4.23;;;;;;;;;;5006620;28;20860;-81
2023/10/06 14:35:12;;;;;;;8.07;4.83;;;;;;;;;;5000144;28;20244;-81
2023/10/06 14:37:42;;;;;;;6.77;4.00;;;;;;;;;;5001573;28;20207;-81
2023/10/06 14:45:59;;;;;;;6.93;4.17;;;;;;;;;;5006305;28;20250;-81
2023/10/06 14:48:27;;;;;;;8.17;3.97;;;;;;;;;;5008932;28;20194;-81
2023/10/06 14:51:03;;;;;;;7.30;4.57;;;;;;;;;;5008581;28;20259;-81
2023/10/06 14:53:29;;;;;;;7.87;4.60;;;;;;;;;;5007822;28;20252;-81
2023/10/06 14:55:56;;;;;;;7.00;4.20;;;;;;;;;;5002536;28;20221;-81
2023/10/06 14:58:22;;;;;;;7.27;4.10;;;;;;;;;;5009420;28;20204;-82
2023/10/06 15:00:49;;;;;;;6.37;3.97;;;;;;;;;;5001774;28;20199;-81
2023/10/06 15:03:18;;;;;;;7.50;4.07;;;;;;;;;;5003131;28;20182;-81
2023/10/06 15:05:48;;;;;;;8.67;3.60;;;;;;;;;;5001707;28;20191;-81
2023/10/06 15:08:16;;;;;;;5.97;3.60;;;;;;;;;;4992849;28;20558;-81
2023/10/06 15:10:42;;;;;;;7.27;4.03;;;;;;;;;;5004297;28;20200;-81
2023/10/06 15:13:12;;;;;;;7.17;3.90;;;;;;;;;;4996564;28;22171;-81